sensor_id;sensor_type;location;lat;lon;timestamp;temperature;humidity
5775;DHT22;2913;51.120;6.772;2022-09-21T00:00:48;10.40;99.90
5775;DHT22;2913;51.120;6.772;2022-09-21T00:03:17;10.30;99.90
5775;DHT22;2913;51.120;6.772;2022-09-21T00:05:43;10.40;99.90
5775;DHT22;2913;51.120;6.772;2022-09-21T00:08:10;10.40;99.90
5775;DHT22;2913;51.120;6.772;2022-09-21T00:10:36;10.40;99.90
5775;DHT22;2913;51.120;6.772;2022-09-21T00:13:02;10.30;99.90
5775;DHT22;2913;51.120;6.772;2022-09-21T00:15:28;10.30;99.90
5775;DHT22;2913;51.120;6.772;2022-09-21T00:17:57;10.20;99.90
5775;DHT22;2913;51.120;6.772;2022-09-21T00:20:24;10.20;99.90
5775;DHT22;2913;51.120;6.772;2022-09-21T00:22:50;10.30;99.90
5775;DHT22;2913;51.120;6.772;2022-09-21T00:25:17;10.20;99.90
5775;DHT22;2913;51.120;6.772;2022-09-21T00:27:45;10.10;99.90
5775;DHT22;2913;51.120;6.772;2022-09-21T00:30:16;10.10;99.90
5775;DHT22;2913;51.120;6.772;2022-09-21T00:32:42;10.10;99.90
5775;DHT22;2913;51.120;6.772;2022-09-21T00:35:12;10.10;99.90
5775;DHT22;2913;51.120;6.772;2022-09-21T00:37:37;10.00;99.90
5775;DHT22;2913;51.120;6.772;2022-09-21T00:40:06;10.00;99.90
5775;DHT22;2913;51.120;6.772;2022-09-21T00:42:34;10.00;99.90
5775;DHT22;2913;51.120;6.772;2022-09-21T00:45:00;9.90;99.90
5775;DHT22;2913;51.120;6.772;2022-09-21T00:47:34;9.90;99.90
5775;DHT22;2913;51.120;6.772;2022-09-21T00:50:04;9.80;99.90
5775;DHT22;2913;51.120;6.772;2022-09-21T00:52:34;9.80;99.90
5775;DHT22;2913;51.120;6.772;2022-09-21T00:57:39;9.80;99.90
5775;DHT22;2913;51.120;6.772;2022-09-21T01:00:07;9.80;99.90
5775;DHT22;2913;51.120;6.772;2022-09-21T01:02:34;9.70;99.90
5775;DHT22;2913;51.120;6.772;2022-09-21T01:05:05;9.60;99.90
5775;DHT22;2913;51.120;6.772;2022-09-21T01:07:35;9.60;99.90
5775;DHT22;2913;51.120;6.772;2022-09-21T01:10:06;9.70;99.90
5775;DHT22;2913;51.120;6.772;2022-09-21T01:29:31;9.60;99.90
5775;DHT22;2913;51.120;6.772;2022-09-21T01:32:22;9.60;99.90
5775;DHT22;2913;51.120;6.772;2022-09-21T01:37:51;9.40;99.90
5775;DHT22;2913;51.120;6.772;2022-09-21T01:40:24;9.40;99.90
5775;DHT22;2913;51.120;6.772;2022-09-21T01:42:53;9.50;99.90
5775;DHT22;2913;51.120;6.772;2022-09-21T01:45:25;9.40;99.90
5775;DHT22;2913;51.120;6.772;2022-09-21T01:47:53;9.40;99.90
5775;DHT22;2913;51.120;6.772;2022-09-21T01:50:24;9.30;99.90
5775;DHT22;2913;51.120;6.772;2022-09-21T01:55:28;9.30;99.90
5775;DHT22;2913;51.120;6.772;2022-09-21T01:58:03;9.20;99.90
5775;DHT22;2913;51.120;6.772;2022-09-21T02:00:31;9.20;99.90
5775;DHT22;2913;51.120;6.772;2022-09-21T02:03:13;9.20;99.90
5775;DHT22;2913;51.120;6.772;2022-09-21T02:05:42;9.30;99.90
5775;DHT22;2913;51.120;6.772;2022-09-21T02:08:09;9.30;99.90
5775;DHT22;2913;51.120;6.772;2022-09-21T02:10:49;9.30;99.90
5775;DHT22;2913;51.120;6.772;2022-09-21T02:13:20;9.30;99.90
5775;DHT22;2913;51.120;6.772;2022-09-21T02:19:06;9.40;99.90
5775;DHT22;2913;51.120;6.772;2022-09-21T02:27:00;9.40;99.90
5775;DHT22;2913;51.120;6.772;2022-09-21T02:32:15;9.30;99.90
5775;DHT22;2913;51.120;6.772;2022-09-21T02:34:43;9.20;99.90
5775;DHT22;2913;51.120;6.772;2022-09-21T02:37:22;9.20;99.90
5775;DHT22;2913;51.120;6.772;2022-09-21T02:39:57;9.20;99.90
5775;DHT22;2913;51.120;6.772;2022-09-21T02:42:27;9.20;99.90
5775;DHT22;2913;51.120;6.772;2022-09-21T02:45:20;9.20;99.90
5775;DHT22;2913;51.120;6.772;2022-09-21T02:47:48;9.20;99.90
5775;DHT22;2913;51.120;6.772;2022-09-21T02:50:20;9.20;99.90
5775;DHT22;2913;51.120;6.772;2022-09-21T02:52:47;9.10;99.90
5775;DHT22;2913;51.120;6.772;2022-09-21T02:55:15;9.10;99.90
5775;DHT22;2913;51.120;6.772;2022-09-21T02:57:42;9.10;99.90
5775;DHT22;2913;51.120;6.772;2022-09-21T03:00:10;9.00;99.90
5775;DHT22;2913;51.120;6.772;2022-09-21T03:02:42;9.00;99.90
5775;DHT22;2913;51.120;6.772;2022-09-21T03:05:09;9.00;99.90
5775;DHT22;2913;51.120;6.772;2022-09-21T03:07:38;9.00;99.90
5775;DHT22;2913;51.120;6.772;2022-09-21T03:10:05;9.10;99.90
5775;DHT22;2913;51.120;6.772;2022-09-21T03:12:33;9.00;99.90
5775;DHT22;2913;51.120;6.772;2022-09-21T03:15:02;9.00;99.90
5775;DHT22;2913;51.120;6.772;2022-09-21T03:17:30;9.00;99.90
5775;DHT22;2913;51.120;6.772;2022-09-21T03:19:55;9.00;99.90
5775;DHT22;2913;51.120;6.772;2022-09-21T03:22:22;9.00;99.90
5775;DHT22;2913;51.120;6.772;2022-09-21T03:24:50;9.00;99.90
5775;DHT22;2913;51.120;6.772;2022-09-21T03:27:20;9.00;99.90
5775;DHT22;2913;51.120;6.772;2022-09-21T03:29:46;9.00;99.90
5775;DHT22;2913;51.120;6.772;2022-09-21T03:32:14;8.90;99.90
5775;DHT22;2913;51.120;6.772;2022-09-21T03:34:40;8.90;99.90
5775;DHT22;2913;51.120;6.772;2022-09-21T03:37:09;8.90;99.90
5775;DHT22;2913;51.120;6.772;2022-09-21T03:39:35;8.90;99.90
5775;DHT22;2913;51.120;6.772;2022-09-21T03:42:01;8.80;99.90
5775;DHT22;2913;51.120;6.772;2022-09-21T03:44:26;8.70;99.90
5775;DHT22;2913;51.120;6.772;2022-09-21T03:46:55;8.70;99.90
5775;DHT22;2913;51.120;6.772;2022-09-21T03:49:22;8.70;99.90
5775;DHT22;2913;51.120;6.772;2022-09-21T03:51:48;8.70;99.90
5775;DHT22;2913;51.120;6.772;2022-09-21T03:54:13;8.70;99.90
5775;DHT22;2913;51.120;6.772;2022-09-21T03:56:41;8.70;99.90
5775;DHT22;2913;51.120;6.772;2022-09-21T03:59:07;8.70;99.90
5775;DHT22;2913;51.120;6.772;2022-09-21T04:01:32;8.60;99.90
5775;DHT22;2913;51.120;6.772;2022-09-21T04:04:00;8.60;99.90
5775;DHT22;2913;51.120;6.772;2022-09-21T04:06:26;8.60;99.90
5775;DHT22;2913;51.120;6.772;2022-09-21T04:08:54;8.60;99.90
5775;DHT22;2913;51.120;6.772;2022-09-21T04:11:20;8.60;99.90
5775;DHT22;2913;51.120;6.772;2022-09-21T04:13:49;8.50;99.90
5775;DHT22;2913;51.120;6.772;2022-09-21T04:16:17;8.50;99.90
5775;DHT22;2913;51.120;6.772;2022-09-21T04:18:45;8.40;99.90
5775;DHT22;2913;51.120;6.772;2022-09-21T04:21:15;8.40;99.90
5775;DHT22;2913;51.120;6.772;2022-09-21T04:23:41;8.40;99.90
5775;DHT22;2913;51.120;6.772;2022-09-21T04:26:27;8.40;99.90
5775;DHT22;2913;51.120;6.772;2022-09-21T04:28:53;8.30;99.90
5775;DHT22;2913;51.120;6.772;2022-09-21T04:31:22;8.20;99.90
5775;DHT22;2913;51.120;6.772;2022-09-21T04:33:54;8.20;99.90
5775;DHT22;2913;51.120;6.772;2022-09-21T04:36:22;8.20;99.90
5775;DHT22;2913;51.120;6.772;2022-09-21T04:38:49;8.20;99.90
5775;DHT22;2913;51.120;6.772;2022-09-21T04:41:17;8.10;99.90
5775;DHT22;2913;51.120;6.772;2022-09-21T04:43:47;8.10;99.90
5775;DHT22;2913;51.120;6.772;2022-09-21T04:46:16;8.10;99.90
5775;DHT22;2913;51.120;6.772;2022-09-21T04:48:44;8.10;99.90
5775;DHT22;2913;51.120;6.772;2022-09-21T04:51:11;8.10;99.90
5775;DHT22;2913;51.120;6.772;2022-09-21T04:53:38;8.10;99.90
5775;DHT22;2913;51.120;6.772;2022-09-21T04:56:08;8.10;99.90
5775;DHT22;2913;51.120;6.772;2022-09-21T04:58:37;8.10;99.90
5775;DHT22;2913;51.120;6.772;2022-09-21T05:01:05;8.10;99.90
5775;DHT22;2913;51.120;6.772;2022-09-21T05:03:34;8.10;99.90
5775;DHT22;2913;51.120;6.772;2022-09-21T05:06:00;8.20;99.90
5775;DHT22;2913;51.120;6.772;2022-09-21T05:08:31;8.20;99.90
5775;DHT22;2913;51.120;6.772;2022-09-21T05:11:17;8.20;99.90
5775;DHT22;2913;51.120;6.772;2022-09-21T05:13:46;8.20;99.90
5775;DHT22;2913;51.120;6.772;2022-09-21T05:16:13;8.20;99.90
5775;DHT22;2913;51.120;6.772;2022-09-21T05:18:39;8.20;99.90
5775;DHT22;2913;51.120;6.772;2022-09-21T05:21:05;8.30;99.90
5775;DHT22;2913;51.120;6.772;2022-09-21T05:23:32;8.30;99.90
5775;DHT22;2913;51.120;6.772;2022-09-21T05:25:58;8.20;99.90
5775;DHT22;2913;51.120;6.772;2022-09-21T05:28:25;8.20;99.90
5775;DHT22;2913;51.120;6.772;2022-09-21T05:33:28;8.40;99.90
5775;DHT22;2913;51.120;6.772;2022-09-21T05:38:39;8.50;99.90
5775;DHT22;2913;51.120;6.772;2022-09-21T05:41:06;8.50;99.90
5775;DHT22;2913;51.120;6.772;2022-09-21T05:43:32;8.60;99.90
5775;DHT22;2913;51.120;6.772;2022-09-21T05:48:51;8.70;99.90
5775;DHT22;2913;51.120;6.772;2022-09-21T05:54:18;8.80;99.90
5775;DHT22;2913;51.120;6.772;2022-09-21T06:05:13;9.10;99.90
5775;DHT22;2913;51.120;6.772;2022-09-21T06:07:42;9.10;99.90
5775;DHT22;2913;51.120;6.772;2022-09-21T06:10:08;9.10;99.90
5775;DHT22;2913;51.120;6.772;2022-09-21T06:12:34;9.20;99.90
5775;DHT22;2913;51.120;6.772;2022-09-21T06:15:02;9.20;99.90
5775;DHT22;2913;51.120;6.772;2022-09-21T06:17:28;9.30;99.90
5775;DHT22;2913;51.120;6.772;2022-09-21T06:19:53;9.40;99.90
5775;DHT22;2913;51.120;6.772;2022-09-21T06:22:19;9.50;99.90
5775;DHT22;2913;51.120;6.772;2022-09-21T06:24:45;9.50;99.90
5775;DHT22;2913;51.120;6.772;2022-09-21T06:27:10;9.60;99.90
5775;DHT22;2913;51.120;6.772;2022-09-21T06:29:36;9.70;99.90
5775;DHT22;2913;51.120;6.772;2022-09-21T06:32:03;9.90;99.90
5775;DHT22;2913;51.120;6.772;2022-09-21T06:34:28;10.00;99.90
5775;DHT22;2913;51.120;6.772;2022-09-21T06:36:54;10.10;99.90
5775;DHT22;2913;51.120;6.772;2022-09-21T06:39:20;10.10;99.90
5775;DHT22;2913;51.120;6.772;2022-09-21T06:41:48;10.30;99.90
5775;DHT22;2913;51.120;6.772;2022-09-21T06:44:13;10.50;99.90
5775;DHT22;2913;51.120;6.772;2022-09-21T06:46:39;10.80;99.90
5775;DHT22;2913;51.120;6.772;2022-09-21T06:49:04;11.00;99.90
5775;DHT22;2913;51.120;6.772;2022-09-21T06:51:30;11.20;99.90
5775;DHT22;2913;51.120;6.772;2022-09-21T06:53:58;11.10;99.90
5775;DHT22;2913;51.120;6.772;2022-09-21T06:56:24;11.20;99.90
5775;DHT22;2913;51.120;6.772;2022-09-21T06:58:51;11.30;99.90
5775;DHT22;2913;51.120;6.772;2022-09-21T07:01:19;11.40;99.90
5775;DHT22;2913;51.120;6.772;2022-09-21T07:03:48;11.50;99.90
5775;DHT22;2913;51.120;6.772;2022-09-21T07:06:14;11.60;99.90
5775;DHT22;2913;51.120;6.772;2022-09-21T07:08:40;11.80;99.90
5775;DHT22;2913;51.120;6.772;2022-09-21T07:11:06;12.00;99.90
5775;DHT22;2913;51.120;6.772;2022-09-21T07:13:32;12.00;99.90
5775;DHT22;2913;51.120;6.772;2022-09-21T07:16:02;12.20;99.90
5775;DHT22;2913;51.120;6.772;2022-09-21T07:18:31;12.30;99.90
5775;DHT22;2913;51.120;6.772;2022-09-21T07:21:01;12.50;99.90
5775;DHT22;2913;51.120;6.772;2022-09-21T07:23:29;12.70;99.90
5775;DHT22;2913;51.120;6.772;2022-09-21T07:25:59;13.00;99.90
5775;DHT22;2913;51.120;6.772;2022-09-21T07:28:30;12.80;99.90
5775;DHT22;2913;51.120;6.772;2022-09-21T07:31:04;13.00;99.90
5775;DHT22;2913;51.120;6.772;2022-09-21T07:33:29;13.10;99.90
5775;DHT22;2913;51.120;6.772;2022-09-21T07:36:00;13.10;99.90
5775;DHT22;2913;51.120;6.772;2022-09-21T07:38:28;13.40;99.90
5775;DHT22;2913;51.120;6.772;2022-09-21T07:40:54;13.50;99.90
5775;DHT22;2913;51.120;6.772;2022-09-21T07:43:22;13.70;99.90
5775;DHT22;2913;51.120;6.772;2022-09-21T07:45:54;13.80;99.90
5775;DHT22;2913;51.120;6.772;2022-09-21T07:48:22;13.70;99.90
5775;DHT22;2913;51.120;6.772;2022-09-21T07:50:49;13.60;99.90
5775;DHT22;2913;51.120;6.772;2022-09-21T07:53:15;13.80;99.90
5775;DHT22;2913;51.120;6.772;2022-09-21T07:55:42;13.90;99.90
5775;DHT22;2913;51.120;6.772;2022-09-21T07:58:08;13.90;99.90
5775;DHT22;2913;51.120;6.772;2022-09-21T08:00:52;14.00;99.90
5775;DHT22;2913;51.120;6.772;2022-09-21T08:03:20;14.20;99.90
5775;DHT22;2913;51.120;6.772;2022-09-21T08:05:48;14.20;99.90
5775;DHT22;2913;51.120;6.772;2022-09-21T08:08:16;14.00;99.90
5775;DHT22;2913;51.120;6.772;2022-09-21T08:10:41;13.80;99.90
5775;DHT22;2913;51.120;6.772;2022-09-21T08:13:09;13.80;99.90
5775;DHT22;2913;51.120;6.772;2022-09-21T08:15:37;13.80;99.90
5775;DHT22;2913;51.120;6.772;2022-09-21T08:18:03;14.10;99.90
5775;DHT22;2913;51.120;6.772;2022-09-21T08:20:31;13.90;99.90
5775;DHT22;2913;51.120;6.772;2022-09-21T08:22:57;13.80;99.90
5775;DHT22;2913;51.120;6.772;2022-09-21T08:25:22;14.10;99.90
5775;DHT22;2913;51.120;6.772;2022-09-21T08:27:48;14.20;99.90
5775;DHT22;2913;51.120;6.772;2022-09-21T08:30:14;14.30;99.90
5775;DHT22;2913;51.120;6.772;2022-09-21T08:32:41;14.30;99.90
5775;DHT22;2913;51.120;6.772;2022-09-21T08:35:07;14.30;99.90
5775;DHT22;2913;51.120;6.772;2022-09-21T08:37:33;14.20;99.90
5775;DHT22;2913;51.120;6.772;2022-09-21T08:40:02;14.20;99.90
5775;DHT22;2913;51.120;6.772;2022-09-21T08:45:16;14.70;99.90
5775;DHT22;2913;51.120;6.772;2022-09-21T08:47:48;14.60;99.90
5775;DHT22;2913;51.120;6.772;2022-09-21T08:52:56;14.40;99.90
5775;DHT22;2913;51.120;6.772;2022-09-21T08:55:23;14.30;99.90
5775;DHT22;2913;51.120;6.772;2022-09-21T08:57:49;14.40;99.90
5775;DHT22;2913;51.120;6.772;2022-09-21T09:00:16;14.60;99.90
5775;DHT22;2913;51.120;6.772;2022-09-21T09:05:56;14.90;99.90
5775;DHT22;2913;51.120;6.772;2022-09-21T09:11:18;15.20;99.90
5775;DHT22;2913;51.120;6.772;2022-09-21T09:21:38;15.30;99.90
5775;DHT22;2913;51.120;6.772;2022-09-21T09:24:18;15.20;99.90
5775;DHT22;2913;51.120;6.772;2022-09-21T09:26:56;14.80;99.90
5775;DHT22;2913;51.120;6.772;2022-09-21T09:30:04;15.10;99.90
5775;DHT22;2913;51.120;6.772;2022-09-21T09:32:48;15.20;99.90
5775;DHT22;2913;51.120;6.772;2022-09-21T09:35:28;15.50;99.90
5775;DHT22;2913;51.120;6.772;2022-09-21T09:38:03;15.60;99.90
5775;DHT22;2913;51.120;6.772;2022-09-21T09:41:05;15.60;99.90
5775;DHT22;2913;51.120;6.772;2022-09-21T09:49:38;15.90;99.90
5775;DHT22;2913;51.120;6.772;2022-09-21T09:52:10;15.90;99.90
5775;DHT22;2913;51.120;6.772;2022-09-21T09:54:36;15.80;99.90
5775;DHT22;2913;51.120;6.772;2022-09-21T09:57:05;16.00;99.90
5775;DHT22;2913;51.120;6.772;2022-09-21T09:59:38;16.20;99.90
5775;DHT22;2913;51.120;6.772;2022-09-21T10:05:04;16.20;99.90
5775;DHT22;2913;51.120;6.772;2022-09-21T10:07:34;16.40;99.90
5775;DHT22;2913;51.120;6.772;2022-09-21T10:12:46;16.70;99.90
5775;DHT22;2913;51.120;6.772;2022-09-21T10:15:15;16.80;99.90
5775;DHT22;2913;51.120;6.772;2022-09-21T10:17:47;16.90;99.90
5775;DHT22;2913;51.120;6.772;2022-09-21T10:20:17;16.80;99.90
5775;DHT22;2913;51.120;6.772;2022-09-21T10:22:47;16.40;99.90
5775;DHT22;2913;51.120;6.772;2022-09-21T10:25:20;16.40;99.90
5775;DHT22;2913;51.120;6.772;2022-09-21T10:27:48;16.50;99.90
5775;DHT22;2913;51.120;6.772;2022-09-21T10:32:58;16.60;99.90
5775;DHT22;2913;51.120;6.772;2022-09-21T10:35:25;16.60;99.90
5775;DHT22;2913;51.120;6.772;2022-09-21T10:38:17;16.40;99.90
5775;DHT22;2913;51.120;6.772;2022-09-21T10:40:43;16.50;99.90
5775;DHT22;2913;51.120;6.772;2022-09-21T10:43:40;16.70;99.90
5775;DHT22;2913;51.120;6.772;2022-09-21T10:46:07;16.80;99.90
5775;DHT22;2913;51.120;6.772;2022-09-21T10:48:35;16.70;99.90
5775;DHT22;2913;51.120;6.772;2022-09-21T10:51:02;16.90;99.90
5775;DHT22;2913;51.120;6.772;2022-09-21T10:53:33;17.00;99.90
5775;DHT22;2913;51.120;6.772;2022-09-21T10:58:36;17.20;99.90
5775;DHT22;2913;51.120;6.772;2022-09-21T11:01:22;17.40;99.90
5775;DHT22;2913;51.120;6.772;2022-09-21T11:03:59;17.60;99.90
5775;DHT22;2913;51.120;6.772;2022-09-21T11:09:12;17.40;96.70
5775;DHT22;2913;51.120;6.772;2022-09-21T11:14:50;17.50;98.10
5775;DHT22;2913;51.120;6.772;2022-09-21T11:23:08;17.50;92.00
5775;DHT22;2913;51.120;6.772;2022-09-21T11:25:45;17.80;91.30
5775;DHT22;2913;51.120;6.772;2022-09-21T11:28:18;18.10;95.60
5775;DHT22;2913;51.120;6.772;2022-09-21T11:39:38;18.60;85.20
5775;DHT22;2913;51.120;6.772;2022-09-21T11:51:00;18.50;76.70
5775;DHT22;2913;51.120;6.772;2022-09-21T12:16:02;19.00;73.90
5775;DHT22;2913;51.120;6.772;2022-09-21T12:21:20;18.90;69.10
5775;DHT22;2913;51.120;6.772;2022-09-21T12:23:54;19.00;68.40
5775;DHT22;2913;51.120;6.772;2022-09-21T12:26:26;19.20;71.60
5775;DHT22;2913;51.120;6.772;2022-09-21T12:29:15;19.40;72.40
5775;DHT22;2913;51.120;6.772;2022-09-21T12:34:23;19.40;69.30
5775;DHT22;2913;51.120;6.772;2022-09-21T12:39:36;19.30;69.40
5775;DHT22;2913;51.120;6.772;2022-09-21T12:42:06;19.40;70.40
5775;DHT22;2913;51.120;6.772;2022-09-21T12:44:55;19.30;69.30
5775;DHT22;2913;51.120;6.772;2022-09-21T12:48:01;19.60;70.80
5775;DHT22;2913;51.120;6.772;2022-09-21T12:50:37;19.80;70.40
5775;DHT22;2913;51.120;6.772;2022-09-21T12:53:10;20.00;70.40
5775;DHT22;2913;51.120;6.772;2022-09-21T12:55:55;20.00;69.10
5775;DHT22;2913;51.120;6.772;2022-09-21T13:09:30;20.60;67.70
5775;DHT22;2913;51.120;6.772;2022-09-21T13:12:00;20.60;66.30
5775;DHT22;2913;51.120;6.772;2022-09-21T13:14:32;20.60;66.30
5775;DHT22;2913;51.120;6.772;2022-09-21T13:17:02;20.60;69.10
5775;DHT22;2913;51.120;6.772;2022-09-21T13:19:31;20.50;65.40
5775;DHT22;2913;51.120;6.772;2022-09-21T13:24:56;20.60;65.10
5775;DHT22;2913;51.120;6.772;2022-09-21T13:30:38;20.40;62.60
5775;DHT22;2913;51.120;6.772;2022-09-21T13:49:22;20.40;59.80
5775;DHT22;2913;51.120;6.772;2022-09-21T13:54:15;20.70;61.60
5775;DHT22;2913;51.120;6.772;2022-09-21T13:56:42;20.70;65.50
5775;DHT22;2913;51.120;6.772;2022-09-21T13:59:20;20.70;66.90
5775;DHT22;2913;51.120;6.772;2022-09-21T14:01:47;20.50;65.60
5775;DHT22;2913;51.120;6.772;2022-09-21T14:04:23;20.10;66.10
5775;DHT22;2913;51.120;6.772;2022-09-21T14:06:54;20.00;66.90
5775;DHT22;2913;51.120;6.772;2022-09-21T14:09:25;20.00;67.60
5775;DHT22;2913;51.120;6.772;2022-09-21T14:11:58;20.00;67.30
5775;DHT22;2913;51.120;6.772;2022-09-21T14:14:35;20.00;68.00
5775;DHT22;2913;51.120;6.772;2022-09-21T14:22:31;20.00;68.80
5775;DHT22;2913;51.120;6.772;2022-09-21T14:25:26;19.70;68.50
5775;DHT22;2913;51.120;6.772;2022-09-21T14:27:58;19.50;68.10
5775;DHT22;2913;51.120;6.772;2022-09-21T14:30:28;19.40;67.80
5775;DHT22;2913;51.120;6.772;2022-09-21T14:35:26;19.50;69.30
5775;DHT22;2913;51.120;6.772;2022-09-21T14:38:04;19.50;68.70
5775;DHT22;2913;51.120;6.772;2022-09-21T14:40:44;19.40;69.20
5775;DHT22;2913;51.120;6.772;2022-09-21T14:43:15;19.50;68.80
5775;DHT22;2913;51.120;6.772;2022-09-21T14:51:30;19.30;68.40
5775;DHT22;2913;51.120;6.772;2022-09-21T14:55:05;19.20;67.00
5775;DHT22;2913;51.120;6.772;2022-09-21T14:57:28;19.30;68.90
5775;DHT22;2913;51.120;6.772;2022-09-21T15:00:21;19.10;68.80
5775;DHT22;2913;51.120;6.772;2022-09-21T15:05:55;19.00;67.30
5775;DHT22;2913;51.120;6.772;2022-09-21T15:11:35;19.00;66.80
5775;DHT22;2913;51.120;6.772;2022-09-21T15:14:28;18.80;67.10
5775;DHT22;2913;51.120;6.772;2022-09-21T15:16:57;18.80;67.70
5775;DHT22;2913;51.120;6.772;2022-09-21T15:19:26;18.90;67.10
5775;DHT22;2913;51.120;6.772;2022-09-21T15:21:56;18.80;66.30
5775;DHT22;2913;51.120;6.772;2022-09-21T15:24:34;18.70;66.90
5775;DHT22;2913;51.120;6.772;2022-09-21T15:27:15;18.80;67.00
5775;DHT22;2913;51.120;6.772;2022-09-21T15:29:46;18.80;66.30
5775;DHT22;2913;51.120;6.772;2022-09-21T15:32:24;18.70;65.70
5775;DHT22;2913;51.120;6.772;2022-09-21T15:34:59;18.50;64.60
5775;DHT22;2913;51.120;6.772;2022-09-21T15:37:28;18.40;64.90
5775;DHT22;2913;51.120;6.772;2022-09-21T15:40:04;18.50;65.60
5775;DHT22;2913;51.120;6.772;2022-09-21T15:42:47;18.40;64.50
5775;DHT22;2913;51.120;6.772;2022-09-21T15:45:25;18.40;64.20
5775;DHT22;2913;51.120;6.772;2022-09-21T15:47:51;18.20;62.70
5775;DHT22;2913;51.120;6.772;2022-09-21T15:50:18;18.30;63.10
5775;DHT22;2913;51.120;6.772;2022-09-21T15:52:52;18.40;64.80
5775;DHT22;2913;51.120;6.772;2022-09-21T15:55:22;18.30;65.30
5775;DHT22;2913;51.120;6.772;2022-09-21T15:57:50;18.40;64.90
5775;DHT22;2913;51.120;6.772;2022-09-21T16:00:24;18.40;64.30
5775;DHT22;2913;51.120;6.772;2022-09-21T16:05:26;18.60;64.30
5775;DHT22;2913;51.120;6.772;2022-09-21T16:08:15;18.60;64.40
5775;DHT22;2913;51.120;6.772;2022-09-21T16:10:44;18.50;64.00
5775;DHT22;2913;51.120;6.772;2022-09-21T16:16:12;18.50;63.30
5775;DHT22;2913;51.120;6.772;2022-09-21T16:18:56;18.60;66.10
5775;DHT22;2913;51.120;6.772;2022-09-21T16:21:32;18.60;65.30
5775;DHT22;2913;51.120;6.772;2022-09-21T16:24:14;18.50;65.00
5775;DHT22;2913;51.120;6.772;2022-09-21T16:26:57;18.50;65.40
5775;DHT22;2913;51.120;6.772;2022-09-21T16:29:36;18.40;66.30
5775;DHT22;2913;51.120;6.772;2022-09-21T16:34:48;18.30;68.20
5775;DHT22;2913;51.120;6.772;2022-09-21T16:39:57;18.00;68.40
5775;DHT22;2913;51.120;6.772;2022-09-21T16:42:24;17.90;67.90
5775;DHT22;2913;51.120;6.772;2022-09-21T16:44:55;17.90;71.40
5775;DHT22;2913;51.120;6.772;2022-09-21T16:47:23;17.90;73.70
5775;DHT22;2913;51.120;6.772;2022-09-21T16:49:55;17.90;75.90
5775;DHT22;2913;51.120;6.772;2022-09-21T16:52:26;17.80;76.80
5775;DHT22;2913;51.120;6.772;2022-09-21T16:54:52;17.70;79.10
5775;DHT22;2913;51.120;6.772;2022-09-21T16:57:19;17.70;81.70
5775;DHT22;2913;51.120;6.772;2022-09-21T16:59:48;17.60;83.80
5775;DHT22;2913;51.120;6.772;2022-09-21T17:02:15;17.60;86.60
5775;DHT22;2913;51.120;6.772;2022-09-21T17:04:44;17.60;90.80
5775;DHT22;2913;51.120;6.772;2022-09-21T17:07:11;17.50;93.60
5775;DHT22;2913;51.120;6.772;2022-09-21T17:09:41;17.40;96.00
5775;DHT22;2913;51.120;6.772;2022-09-21T17:12:13;17.30;99.90
5775;DHT22;2913;51.120;6.772;2022-09-21T17:14:42;17.20;99.90
5775;DHT22;2913;51.120;6.772;2022-09-21T17:17:22;17.20;99.90
5775;DHT22;2913;51.120;6.772;2022-09-21T17:19:49;17.00;99.90
5775;DHT22;2913;51.120;6.772;2022-09-21T17:22:17;17.00;99.90
5775;DHT22;2913;51.120;6.772;2022-09-21T17:24:44;16.80;99.90
5775;DHT22;2913;51.120;6.772;2022-09-21T17:27:11;16.70;99.90
5775;DHT22;2913;51.120;6.772;2022-09-21T17:29:37;16.70;99.90
5775;DHT22;2913;51.120;6.772;2022-09-21T17:32:08;16.60;99.90
5775;DHT22;2913;51.120;6.772;2022-09-21T17:34:34;16.40;99.90
5775;DHT22;2913;51.120;6.772;2022-09-21T17:37:02;16.30;99.90
5775;DHT22;2913;51.120;6.772;2022-09-21T17:39:28;16.30;99.90
5775;DHT22;2913;51.120;6.772;2022-09-21T17:42:02;16.20;99.90
5775;DHT22;2913;51.120;6.772;2022-09-21T17:44:45;16.20;99.90
5775;DHT22;2913;51.120;6.772;2022-09-21T17:47:19;16.10;99.90
5775;DHT22;2913;51.120;6.772;2022-09-21T17:49:46;16.00;99.90
5775;DHT22;2913;51.120;6.772;2022-09-21T17:52:18;15.90;99.90
5775;DHT22;2913;51.120;6.772;2022-09-21T17:55:03;15.80;99.90
5775;DHT22;2913;51.120;6.772;2022-09-21T18:00:31;15.60;99.90
5775;DHT22;2913;51.120;6.772;2022-09-21T18:02:59;15.50;99.90
5775;DHT22;2913;51.120;6.772;2022-09-21T18:05:29;15.40;99.90
5775;DHT22;2913;51.120;6.772;2022-09-21T18:07:55;15.40;99.90
5775;DHT22;2913;51.120;6.772;2022-09-21T18:10:23;15.30;99.90
5775;DHT22;2913;51.120;6.772;2022-09-21T18:20:59;15.00;99.90
5775;DHT22;2913;51.120;6.772;2022-09-21T18:26:02;14.90;99.90
5775;DHT22;2913;51.120;6.772;2022-09-21T18:36:39;14.60;99.90
5775;DHT22;2913;51.120;6.772;2022-09-21T18:39:29;14.50;99.90
5775;DHT22;2913;51.120;6.772;2022-09-21T18:44:58;14.40;99.90
5775;DHT22;2913;51.120;6.772;2022-09-21T18:50:20;14.30;99.90
5775;DHT22;2913;51.120;6.772;2022-09-21T18:55:41;14.20;99.90
5775;DHT22;2913;51.120;6.772;2022-09-21T18:58:08;14.20;99.90
5775;DHT22;2913;51.120;6.772;2022-09-21T19:00:35;14.10;99.90
5775;DHT22;2913;51.120;6.772;2022-09-21T19:03:05;14.00;99.90
5775;DHT22;2913;51.120;6.772;2022-09-21T19:05:32;14.00;99.90
5775;DHT22;2913;51.120;6.772;2022-09-21T19:10:36;13.90;99.90
5775;DHT22;2913;51.120;6.772;2022-09-21T19:18:26;13.80;99.90
5775;DHT22;2913;51.120;6.772;2022-09-21T19:24:21;13.60;99.90
5775;DHT22;2913;51.120;6.772;2022-09-21T19:27:17;13.60;99.90
5775;DHT22;2913;51.120;6.772;2022-09-21T19:30:00;13.60;99.90
5775;DHT22;2913;51.120;6.772;2022-09-21T19:37:48;13.40;99.90
5775;DHT22;2913;51.120;6.772;2022-09-21T19:40:18;13.40;99.90
5775;DHT22;2913;51.120;6.772;2022-09-21T19:48:29;13.30;99.90
5775;DHT22;2913;51.120;6.772;2022-09-21T19:50:59;13.20;99.90
5775;DHT22;2913;51.120;6.772;2022-09-21T19:53:26;13.20;99.90
5775;DHT22;2913;51.120;6.772;2022-09-21T19:56:13;13.10;99.90
5775;DHT22;2913;51.120;6.772;2022-09-21T19:58:58;13.10;99.90
5775;DHT22;2913;51.120;6.772;2022-09-21T20:01:55;13.00;99.90
5775;DHT22;2913;51.120;6.772;2022-09-21T20:04:42;13.00;99.90
5775;DHT22;2913;51.120;6.772;2022-09-21T20:07:22;12.90;99.90
5775;DHT22;2913;51.120;6.772;2022-09-21T20:10:17;12.80;99.90
5775;DHT22;2913;51.120;6.772;2022-09-21T20:15:39;12.80;99.90
5775;DHT22;2913;51.120;6.772;2022-09-21T20:20:45;12.70;99.90
5775;DHT22;2913;51.120;6.772;2022-09-21T20:23:14;12.70;99.90
5775;DHT22;2913;51.120;6.772;2022-09-21T20:25:53;12.60;99.90
5775;DHT22;2913;51.120;6.772;2022-09-21T20:28:20;12.60;99.90
5775;DHT22;2913;51.120;6.772;2022-09-21T20:30:48;12.50;99.90
5775;DHT22;2913;51.120;6.772;2022-09-21T20:33:17;12.50;99.90
5775;DHT22;2913;51.120;6.772;2022-09-21T20:35:47;12.40;99.90
5775;DHT22;2913;51.120;6.772;2022-09-21T20:38:13;12.40;99.90
5775;DHT22;2913;51.120;6.772;2022-09-21T20:40:40;12.40;99.90
5775;DHT22;2913;51.120;6.772;2022-09-21T20:43:09;12.30;99.90
5775;DHT22;2913;51.120;6.772;2022-09-21T20:45:36;12.30;99.90
5775;DHT22;2913;51.120;6.772;2022-09-21T20:48:04;12.30;99.90
5775;DHT22;2913;51.120;6.772;2022-09-21T20:50:43;12.30;99.90
5775;DHT22;2913;51.120;6.772;2022-09-21T20:53:10;12.20;99.90
5775;DHT22;2913;51.120;6.772;2022-09-21T20:55:37;12.20;99.90
5775;DHT22;2913;51.120;6.772;2022-09-21T20:58:03;12.20;99.90
5775;DHT22;2913;51.120;6.772;2022-09-21T21:00:29;12.10;99.90
5775;DHT22;2913;51.120;6.772;2022-09-21T21:02:56;12.10;99.90
5775;DHT22;2913;51.120;6.772;2022-09-21T21:05:24;12.00;99.90
5775;DHT22;2913;51.120;6.772;2022-09-21T21:07:50;12.10;99.90